createdAt,value
2018-06-21T00:00:49.488Z,17.36
2018-06-21T00:01:49.728Z,17.44
2018-06-21T00:02:49.966Z,17.22
2018-06-21T00:03:50.209Z,17.23
2018-06-21T00:04:50.444Z,17.06
2018-06-21T00:05:50.674Z,17.06
2018-06-21T00:06:50.916Z,16.88
2018-06-21T00:07:51.165Z,16.86
2018-06-21T00:08:51.415Z,16.85
2018-06-21T00:09:51.651Z,16.76
2018-06-21T00:10:51.920Z,16.75
2018-06-21T00:11:52.133Z,16.79
2018-06-21T00:12:52.405Z,16.73
2018-06-21T00:13:52.666Z,16.85
2018-06-21T00:14:52.878Z,16.88
2018-06-21T00:15:53.122Z,16.97
2018-06-21T00:16:53.365Z,17.03
2018-06-21T00:17:53.600Z,17.16
2018-06-21T00:18:53.840Z,17.18
2018-06-21T00:19:54.102Z,17.21
2018-06-21T00:20:54.304Z,17.19
2018-06-21T00:21:54.549Z,17.22
2018-06-21T00:22:54.797Z,17.19
2018-06-21T00:23:55.033Z,17.16
2018-06-21T00:24:55.262Z,17.04
2018-06-21T00:25:55.504Z,17.15
2018-06-21T00:26:55.741Z,17.08
2018-06-21T00:27:55.982Z,17.30
2018-06-21T00:28:56.226Z,17.28
2018-06-21T00:29:56.461Z,17.43
2018-06-21T00:30:56.708Z,17.43
2018-06-21T00:31:56.929Z,17.44
2018-06-21T00:32:57.157Z,17.36
2018-06-21T00:33:57.411Z,17.33
2018-06-21T00:34:57.654Z,17.28
2018-06-21T00:35:57.903Z,17.15
2018-06-21T00:36:58.147Z,17.03
2018-06-21T00:37:58.364Z,16.71
2018-06-21T00:38:58.604Z,16.49
2018-06-21T00:39:58.848Z,16.20
2018-06-21T00:40:59.082Z,15.93
2018-06-21T00:41:59.331Z,15.87
2018-06-21T00:42:59.570Z,15.83
2018-06-21T00:43:59.804Z,15.74
2018-06-21T00:45:00.045Z,15.80
2018-06-21T00:46:00.283Z,15.92
2018-06-21T00:47:00.522Z,15.89
2018-06-21T00:48:00.777Z,15.94
2018-06-21T00:49:01.028Z,15.96
2018-06-21T00:50:01.255Z,15.96
2018-06-21T00:51:01.489Z,15.93
2018-06-21T00:52:01.738Z,15.93
2018-06-21T00:53:01.969Z,16.07
2018-06-21T00:54:02.198Z,16.12
2018-06-21T00:55:02.441Z,16.20
2018-06-21T00:56:02.684Z,16.24
2018-06-21T00:57:02.925Z,16.24
2018-06-21T00:58:03.171Z,16.09
2018-06-21T00:59:03.392Z,16.05
2018-06-21T01:00:03.641Z,16.08
2018-06-21T01:01:03.863Z,15.90
2018-06-21T01:02:04.113Z,15.97
2018-06-21T01:03:04.339Z,15.93
2018-06-21T01:04:04.589Z,15.76
2018-06-21T01:05:04.830Z,15.76
2018-06-21T01:06:05.072Z,15.75
2018-06-21T01:07:05.298Z,15.64
2018-06-21T01:08:05.540Z,15.53
2018-06-21T01:09:05.786Z,15.53
2018-06-21T01:10:06.020Z,15.49
2018-06-21T01:11:06.273Z,15.47
2018-06-21T01:12:06.497Z,15.41
2018-06-21T01:13:06.736Z,15.23
2018-06-21T01:14:06.975Z,15.28
2018-06-21T01:15:07.207Z,15.29
2018-06-21T01:16:07.439Z,15.27
2018-06-21T01:17:07.664Z,15.13
2018-06-21T01:18:07.918Z,15.16
2018-06-21T01:19:08.168Z,15.16
2018-06-21T01:20:08.400Z,15.13
2018-06-21T01:21:08.640Z,15.09
2018-06-21T01:22:08.880Z,15.09
2018-06-21T01:23:09.120Z,15.01
2018-06-21T01:24:09.363Z,15.14
2018-06-21T01:25:09.603Z,15.16
2018-06-21T01:26:09.842Z,15.28
2018-06-21T01:27:10.080Z,15.21
2018-06-21T01:28:10.317Z,15.29
2018-06-21T01:29:10.547Z,15.41
2018-06-21T01:30:10.796Z,15.21
2018-06-21T01:31:11.031Z,15.20
2018-06-21T01:32:11.266Z,14.96
2018-06-21T01:33:11.510Z,14.77
2018-06-21T01:34:11.740Z,14.80
2018-06-21T01:35:11.984Z,14.69
2018-06-21T01:36:12.216Z,14.69
2018-06-21T01:37:12.457Z,14.72
2018-06-21T01:38:12.687Z,14.68
2018-06-21T01:39:12.940Z,14.69
2018-06-21T01:40:13.158Z,14.72
2018-06-21T01:41:13.394Z,14.69
2018-06-21T01:42:13.635Z,14.68
2018-06-21T01:43:13.879Z,14.81
2018-06-21T01:44:14.103Z,14.77
2018-06-21T01:45:14.352Z,14.78
2018-06-21T01:46:14.567Z,14.77
2018-06-21T01:47:14.805Z,14.86
2018-06-21T01:48:15.044Z,14.92
2018-06-21T01:49:15.282Z,15.03
2018-06-21T01:50:15.520Z,15.13
2018-06-21T01:51:15.759Z,15.14
2018-06-21T01:52:15.983Z,15.21
2018-06-21T01:53:16.221Z,15.46
2018-06-21T01:54:16.453Z,15.62
2018-06-21T01:55:16.701Z,15.38
2018-06-21T01:56:16.950Z,15.38
2018-06-21T01:57:17.182Z,15.28
2018-06-21T01:58:17.405Z,15.09
2018-06-21T01:59:17.641Z,14.77
2018-06-21T02:00:17.879Z,14.72
2018-06-21T02:01:18.138Z,14.54
2018-06-21T02:02:18.349Z,14.52
2018-06-21T02:03:18.586Z,14.50
2018-06-21T02:04:18.824Z,14.57
2018-06-21T02:05:19.052Z,14.43
2018-06-21T02:06:19.299Z,14.62
2018-06-21T02:07:19.538Z,14.72
2018-06-21T02:08:19.763Z,14.80
2018-06-21T02:09:19.992Z,14.84
2018-06-21T02:10:20.228Z,14.96
2018-06-21T02:11:20.468Z,14.96
2018-06-21T02:12:20.713Z,14.86
2018-06-21T02:13:20.924Z,14.86
2018-06-21T02:14:21.158Z,14.86
2018-06-21T02:15:21.392Z,14.75
2018-06-21T02:16:21.638Z,14.80
2018-06-21T02:17:21.883Z,14.99
2018-06-21T02:18:22.108Z,15.02
2018-06-21T02:19:22.357Z,15.07
2018-06-21T02:20:22.597Z,15.02
2018-06-21T02:21:22.827Z,15.11
2018-06-21T02:22:23.080Z,15.17
2018-06-21T02:23:23.307Z,15.32
2018-06-21T02:24:23.553Z,15.29
2018-06-21T02:25:23.777Z,15.38
2018-06-21T02:26:24.015Z,15.25
2018-06-21T02:27:24.277Z,15.29
2018-06-21T02:28:24.517Z,15.36
2018-06-21T02:29:24.759Z,15.34
2018-06-21T02:30:25.002Z,15.21
2018-06-21T02:31:25.248Z,15.21
2018-06-21T02:32:25.463Z,15.02
2018-06-21T02:33:25.699Z,15.03
2018-06-21T02:34:26.003Z,15.06
2018-06-21T02:35:26.165Z,14.99
2018-06-21T02:36:26.397Z,15.09
2018-06-21T02:37:26.646Z,15.14
2018-06-21T02:38:26.871Z,15.13
2018-06-21T02:39:27.131Z,15.11
2018-06-21T02:40:27.349Z,15.16
2018-06-21T02:41:27.575Z,15.11
2018-06-21T02:42:27.817Z,15.23
2018-06-21T02:43:28.051Z,15.31
2018-06-21T02:44:28.292Z,15.21
2018-06-21T02:45:28.523Z,15.17
2018-06-21T02:46:28.788Z,15.17
2018-06-21T02:47:28.992Z,15.14
2018-06-21T02:48:29.211Z,15.09
2018-06-21T02:49:29.454Z,15.07
2018-06-21T02:50:29.677Z,15.11
2018-06-21T02:51:29.935Z,14.99
2018-06-21T02:52:30.150Z,15.03
2018-06-21T02:53:30.400Z,15.03
2018-06-21T02:54:30.637Z,15.03
2018-06-21T02:55:30.869Z,15.03
2018-06-21T02:56:31.109Z,15.01
2018-06-21T02:57:31.355Z,15.07
2018-06-21T02:58:31.584Z,15.14
2018-06-21T02:59:31.832Z,15.39
2018-06-21T03:00:32.041Z,15.43
2018-06-21T03:01:32.276Z,15.46
2018-06-21T03:02:32.515Z,15.57
2018-06-21T03:03:32.745Z,15.54
2018-06-21T03:04:32.968Z,15.71
2018-06-21T03:05:33.211Z,15.72
2018-06-21T03:06:33.457Z,15.80
2018-06-21T03:07:33.687Z,15.83
2018-06-21T03:08:33.936Z,15.93
2018-06-21T03:09:34.177Z,16.04
2018-06-21T03:10:34.407Z,16.07
2018-06-21T03:11:34.650Z,16.07
2018-06-21T03:12:34.884Z,16.04
2018-06-21T03:13:35.129Z,16.11
2018-06-21T03:14:35.366Z,16.04
2018-06-21T03:15:35.609Z,16.09
2018-06-21T03:16:35.845Z,16.08
2018-06-21T03:17:36.093Z,16.17
2018-06-21T03:18:36.335Z,16.20
2018-06-21T03:19:36.581Z,16.21
2018-06-21T03:20:36.838Z,16.21
2018-06-21T03:21:37.039Z,16.21
2018-06-21T03:22:37.281Z,16.04
2018-06-21T03:23:37.525Z,16.00
2018-06-21T03:24:37.767Z,15.82
2018-06-21T03:25:38.011Z,15.62
2018-06-21T03:26:38.252Z,15.38
2018-06-21T03:27:38.509Z,15.17
2018-06-21T03:28:38.731Z,15.01
2018-06-21T03:29:38.988Z,14.94
2018-06-21T03:30:39.208Z,14.75
2018-06-21T03:31:39.444Z,14.80
2018-06-21T03:32:39.679Z,14.68
2018-06-21T03:33:39.915Z,14.68
2018-06-21T03:34:40.160Z,14.65
2018-06-21T03:35:40.402Z,14.46
2018-06-21T03:36:40.644Z,14.47
2018-06-21T03:37:40.886Z,14.45
2018-06-21T03:38:41.127Z,14.46
2018-06-21T03:39:41.362Z,14.46
2018-06-21T03:40:41.604Z,14.40
2018-06-21T03:41:41.841Z,14.45
2018-06-21T03:42:42.079Z,14.45
2018-06-21T03:43:42.321Z,14.54
2018-06-21T03:44:42.567Z,14.62
2018-06-21T03:45:42.798Z,14.61
2018-06-21T03:46:43.038Z,14.72
2018-06-21T03:47:43.280Z,14.72
2018-06-21T03:48:43.523Z,14.89
2018-06-21T03:49:43.764Z,15.01
2018-06-21T03:50:44.008Z,15.02
2018-06-21T03:51:44.243Z,15.23
2018-06-21T03:52:44.477Z,15.38
2018-06-21T03:53:44.713Z,15.43
2018-06-21T03:54:44.954Z,15.46
2018-06-21T03:55:45.184Z,15.49
2018-06-21T03:56:45.422Z,15.54
2018-06-21T03:57:45.653Z,15.64
2018-06-21T03:58:45.897Z,15.74
2018-06-21T03:59:46.135Z,15.74
2018-06-21T04:00:46.369Z,15.87
2018-06-21T04:01:46.608Z,15.89
2018-06-21T04:02:46.849Z,15.93
2018-06-21T04:03:47.067Z,15.92
2018-06-21T04:04:47.329Z,15.83
2018-06-21T04:05:47.570Z,15.87
2018-06-21T04:06:47.804Z,15.94
2018-06-21T04:07:48.043Z,15.93
2018-06-21T04:08:48.270Z,15.94
2018-06-21T04:09:48.520Z,16.05
2018-06-21T04:10:48.896Z,16.07
2018-06-21T04:11:49.428Z,16.08
2018-06-21T04:12:49.526Z,16.17
2018-06-21T04:13:49.754Z,16.21
2018-06-21T04:14:50.004Z,16.20
2018-06-21T04:15:50.254Z,16.27
2018-06-21T04:16:50.476Z,16.30
2018-06-21T04:17:50.735Z,16.34
2018-06-21T04:18:50.990Z,16.34
2018-06-21T04:19:51.217Z,16.48
2018-06-21T04:20:51.467Z,16.50
2018-06-21T04:21:51.698Z,16.56
2018-06-21T04:22:51.952Z,16.61
2018-06-21T04:23:52.337Z,16.61
2018-06-21T04:24:52.584Z,16.70
2018-06-21T04:25:52.825Z,16.81
2018-06-21T04:26:53.072Z,16.78
2018-06-21T04:27:53.325Z,16.89
2018-06-21T04:28:53.547Z,16.94
2018-06-21T04:29:53.778Z,16.98
2018-06-21T04:30:54.033Z,16.93
2018-06-21T04:31:54.277Z,16.94
2018-06-21T04:32:54.495Z,16.94
2018-06-21T04:33:54.756Z,16.94
2018-06-21T04:34:54.973Z,16.93
2018-06-21T04:35:55.205Z,16.91
2018-06-21T04:36:55.447Z,16.88
2018-06-21T04:37:55.741Z,16.96
2018-06-21T04:38:55.936Z,16.89
2018-06-21T04:39:56.179Z,16.89
2018-06-21T04:40:56.412Z,16.94
2018-06-21T04:41:56.643Z,16.94
2018-06-21T04:42:56.882Z,17.03
2018-06-21T04:43:57.122Z,17.06
2018-06-21T04:44:57.369Z,17.14
2018-06-21T04:45:57.721Z,17.12
2018-06-21T04:46:57.853Z,17.21
2018-06-21T04:47:58.098Z,17.23
2018-06-21T04:48:58.347Z,17.25
2018-06-21T04:49:58.578Z,17.33
2018-06-21T04:50:58.824Z,17.36
2018-06-21T04:51:59.061Z,17.43
2018-06-21T04:52:59.310Z,17.46
2018-06-21T04:53:59.541Z,17.54
2018-06-21T04:54:59.797Z,17.58
2018-06-21T04:56:00.032Z,17.68
2018-06-21T04:57:00.246Z,17.63
2018-06-21T04:58:00.489Z,17.71
2018-06-21T04:59:00.740Z,17.70
2018-06-21T05:00:00.994Z,17.74
2018-06-21T05:01:01.222Z,17.72
2018-06-21T05:02:01.451Z,17.79
2018-06-21T05:03:01.691Z,17.78
2018-06-21T05:04:01.932Z,17.90
2018-06-21T05:05:02.181Z,17.81
2018-06-21T05:06:02.410Z,17.87
2018-06-21T05:07:02.660Z,18.08
2018-06-21T05:08:02.888Z,18.21
2018-06-21T05:09:03.138Z,18.25
2018-06-21T05:10:03.388Z,18.33
2018-06-21T05:11:03.626Z,18.51
2018-06-21T05:12:04.179Z,18.57
2018-06-21T05:13:04.191Z,18.73
2018-06-21T05:14:04.445Z,18.76
2018-06-21T05:15:04.677Z,18.72
2018-06-21T05:16:04.919Z,18.76
2018-06-21T05:17:05.145Z,18.72
2018-06-21T05:18:05.398Z,18.73
2018-06-21T05:19:05.642Z,18.78
2018-06-21T05:20:05.885Z,18.76
2018-06-21T05:21:06.123Z,18.82
2018-06-21T05:22:06.360Z,18.81
2018-06-21T05:23:06.600Z,18.84
2018-06-21T05:24:06.848Z,18.84
2018-06-21T05:25:07.120Z,18.87
2018-06-21T05:26:07.335Z,18.75
2018-06-21T05:27:07.582Z,18.82
2018-06-21T05:28:07.825Z,18.88
2018-06-21T05:29:08.067Z,18.95
2018-06-21T05:30:08.313Z,18.92
2018-06-21T05:31:08.544Z,18.98
2018-06-21T05:32:08.780Z,18.99
2018-06-21T05:33:09.018Z,19.06
2018-06-21T05:34:09.247Z,19.02
2018-06-21T05:35:09.493Z,19.04
2018-06-21T05:36:09.735Z,19.08
2018-06-21T05:37:09.983Z,19.14
2018-06-21T05:38:10.226Z,19.18
2018-06-21T05:39:10.519Z,19.28
2018-06-21T05:40:10.702Z,19.23
2018-06-21T05:41:10.951Z,19.37
2018-06-21T05:42:11.192Z,19.32
2018-06-21T05:43:11.418Z,19.47
2018-06-21T05:44:20.317Z,19.54
2018-06-21T05:45:12.049Z,19.56
2018-06-21T05:46:12.296Z,19.59
2018-06-21T05:47:12.539Z,19.76
2018-06-21T05:48:12.787Z,19.74
2018-06-21T05:49:13.025Z,19.81
2018-06-21T05:50:13.330Z,19.87
2018-06-21T05:51:22.144Z,19.94
2018-06-21T05:52:13.902Z,19.78
2018-06-21T05:53:14.146Z,19.83
2018-06-21T05:54:14.385Z,19.91
2018-06-21T05:55:14.615Z,19.87
2018-06-21T05:56:14.859Z,19.77
2018-06-21T05:57:15.107Z,19.80
2018-06-21T05:58:15.339Z,19.83
2018-06-21T05:59:15.582Z,19.81
2018-06-21T06:00:15.824Z,19.94
2018-06-21T06:01:16.066Z,19.95
2018-06-21T06:02:16.302Z,20.10
2018-06-21T06:03:16.564Z,20.08
2018-06-21T06:04:16.796Z,20.08
2018-06-21T06:05:17.013Z,20.05
2018-06-21T06:06:17.248Z,20.11
2018-06-21T06:07:17.492Z,20.13
2018-06-21T06:08:17.755Z,20.21
2018-06-21T06:09:25.588Z,20.26
2018-06-21T06:10:18.245Z,20.50
2018-06-21T06:11:18.499Z,20.39
2018-06-21T06:12:18.741Z,20.39
2018-06-21T06:13:18.984Z,20.66
2018-06-21T06:14:27.881Z,20.74
2018-06-21T06:15:19.622Z,20.70
2018-06-21T06:16:27.502Z,20.85
2018-06-21T06:17:20.177Z,20.94
2018-06-21T06:18:20.393Z,21.04
2018-06-21T06:19:20.630Z,21.13
2018-06-21T06:20:20.884Z,20.99
2018-06-21T06:21:21.116Z,21.04
2018-06-21T06:22:21.347Z,21.03
2018-06-21T06:23:21.610Z,21.01
2018-06-21T06:24:21.841Z,20.99
2018-06-21T06:25:22.075Z,20.99
2018-06-21T06:26:22.331Z,20.99
2018-06-21T06:27:22.577Z,20.99
2018-06-21T06:28:22.828Z,20.98
2018-06-21T06:29:23.069Z,21.19
2018-06-21T06:30:31.939Z,21.27
2018-06-21T06:31:23.704Z,21.46
2018-06-21T06:32:32.670Z,21.53
2018-06-21T06:33:32.962Z,21.64
2018-06-21T06:34:33.410Z,21.68
2018-06-21T06:35:25.157Z,21.79
2018-06-21T06:36:34.094Z,21.83
2018-06-21T06:37:34.328Z,21.75
2018-06-21T06:38:33.814Z,21.82
2018-06-21T06:39:35.104Z,21.92
2018-06-21T06:40:34.530Z,22.00
2018-06-21T06:41:36.777Z,22.00
2018-06-21T06:42:36.989Z,22.14
2018-06-21T06:43:36.276Z,22.28
2018-06-21T06:44:36.551Z,22.39
2018-06-21T06:45:36.844Z,22.47
2018-06-21T06:46:28.673Z,22.65
2018-06-21T06:47:37.609Z,22.60
2018-06-21T06:48:37.929Z,22.52
2018-06-21T06:49:38.273Z,22.40
2018-06-21T06:50:37.630Z,22.52
2018-06-21T06:51:38.938Z,22.60
2018-06-21T06:52:38.383Z,22.51
2018-06-21T06:53:39.611Z,22.47
2018-06-21T06:54:31.397Z,22.80
2018-06-21T06:55:31.607Z,22.79
2018-06-21T06:56:31.850Z,22.52
2018-06-21T06:57:39.776Z,22.54
2018-06-21T06:58:41.154Z,22.60
2018-06-21T06:59:41.489Z,22.75
2018-06-21T07:00:42.838Z,22.90
2018-06-21T07:01:41.073Z,22.94
2018-06-21T07:02:43.531Z,22.80
2018-06-21T07:05:36.868Z,22.79
2018-06-21T07:06:08.508Z,22.75
2018-06-21T07:07:08.608Z,22.76
2018-06-21T07:08:08.880Z,22.79
2018-06-21T07:09:16.957Z,22.64
2018-06-21T07:10:09.364Z,22.68
2018-06-21T07:11:18.140Z,22.79
2018-06-21T07:12:19.566Z,22.80
2018-06-21T07:13:19.885Z,22.64
2018-06-21T07:14:19.138Z,22.58
2018-06-21T07:15:20.670Z,22.62
2018-06-21T07:16:18.724Z,22.43
2018-06-21T07:17:11.403Z,22.30
2018-06-21T07:18:11.649Z,22.27
2018-06-21T07:19:11.891Z,22.37
2018-06-21T07:20:12.132Z,22.36
2018-06-21T07:21:12.381Z,22.36
2018-06-21T07:22:12.632Z,22.31
2018-06-21T07:23:12.873Z,22.33
2018-06-21T07:24:13.105Z,22.61
2018-06-21T07:25:13.345Z,22.70
2018-06-21T07:26:13.593Z,22.91
2018-06-21T07:27:13.907Z,23.12
2018-06-21T07:28:14.088Z,23.31
2018-06-21T07:29:14.337Z,23.60
2018-06-21T07:30:14.594Z,24.10
2018-06-21T07:31:14.834Z,24.49
2018-06-21T07:32:15.075Z,24.49
2018-06-21T07:33:15.306Z,24.67
2018-06-21T07:34:15.541Z,24.18
2018-06-21T07:35:15.781Z,24.50
2018-06-21T07:36:16.016Z,24.93
2018-06-21T07:37:16.265Z,25.75
2018-06-21T07:38:16.517Z,25.57
2018-06-21T07:39:16.772Z,25.51
2018-06-21T07:40:17.030Z,26.18
2018-06-21T07:41:17.279Z,26.18
2018-06-21T07:42:17.511Z,25.85
2018-06-21T07:43:17.763Z,25.67
2018-06-21T07:44:18.032Z,26.36
2018-06-21T07:45:18.301Z,26.39
2018-06-21T07:46:18.534Z,26.07
2018-06-21T07:47:18.770Z,25.32
2018-06-21T07:48:19.027Z,24.81
2018-06-21T07:49:19.266Z,24.52
2018-06-21T07:50:19.504Z,24.43
2018-06-21T07:51:19.757Z,24.71
2018-06-21T07:52:20.005Z,24.43
2018-06-21T07:53:20.263Z,25.15
2018-06-21T07:54:20.482Z,24.60
2018-06-21T07:55:20.734Z,24.49
2018-06-21T07:56:20.995Z,24.61
2018-06-21T07:57:21.224Z,24.39
2018-06-21T07:58:21.482Z,24.15
2018-06-21T07:59:21.718Z,24.50
2018-06-21T08:00:21.989Z,24.60
2018-06-21T08:01:22.235Z,24.73
2018-06-21T08:02:22.497Z,24.73
2018-06-21T08:03:22.731Z,24.71
2018-06-21T08:04:22.978Z,24.90
2018-06-21T08:05:23.209Z,25.47
2018-06-21T08:06:23.440Z,26.07
2018-06-21T08:07:23.709Z,26.02
2018-06-21T08:08:23.947Z,26.40
2018-06-21T08:09:24.206Z,26.66
2018-06-21T08:10:24.433Z,26.47
2018-06-21T08:11:24.664Z,26.73
2018-06-21T08:12:24.914Z,26.58
2018-06-21T08:13:25.174Z,26.15
2018-06-21T08:14:25.411Z,26.15
2018-06-21T08:15:25.644Z,26.45
2018-06-21T08:16:25.889Z,25.76
2018-06-21T08:17:26.115Z,26.43
2018-06-21T08:18:26.391Z,26.10
2018-06-21T08:19:26.637Z,26.26
2018-06-21T08:20:26.867Z,26.18
2018-06-21T08:21:27.121Z,26.30
2018-06-21T08:22:27.357Z,26.44
2018-06-21T08:23:27.598Z,26.67
2018-06-21T08:24:27.838Z,26.69
2018-06-21T08:25:28.125Z,26.21
2018-06-21T08:26:37.126Z,25.92
2018-06-21T08:27:38.008Z,25.70
2018-06-21T08:28:29.156Z,25.50
2018-06-21T08:29:39.059Z,25.05
2018-06-21T08:30:39.585Z,24.88
2018-06-21T08:31:38.862Z,24.84
2018-06-21T08:32:30.269Z,25.06
2018-06-21T08:33:39.346Z,25.17
2018-06-21T08:34:40.789Z,25.17
2018-06-21T08:35:41.198Z,24.90
2018-06-21T08:36:31.525Z,24.80
2018-06-21T08:37:31.758Z,25.03
2018-06-21T08:38:32.017Z,24.84
2018-06-21T08:39:41.906Z,24.65
2018-06-21T08:40:32.561Z,24.80
2018-06-21T08:41:32.722Z,24.93
2018-06-21T08:42:42.616Z,25.08
2018-06-21T08:43:33.264Z,25.18
2018-06-21T08:44:33.539Z,25.87
2018-06-21T08:45:42.407Z,25.27
2018-06-21T08:46:42.835Z,25.00
2018-06-21T08:47:43.147Z,24.78
2018-06-21T08:48:34.908Z,24.67
2018-06-21T08:49:35.102Z,24.71
2018-06-21T08:50:44.040Z,24.99
2018-06-21T08:51:44.383Z,25.30
2018-06-21T08:52:36.249Z,25.03
2018-06-21T08:53:45.077Z,24.85
2018-06-21T08:54:45.395Z,24.50
2018-06-21T08:55:37.137Z,24.50
2018-06-21T08:56:37.351Z,24.57
2018-06-21T08:57:37.605Z,24.60
2018-06-21T08:58:37.839Z,24.34
2018-06-21T08:59:38.094Z,24.34
2018-06-21T09:00:38.321Z,24.39
2018-06-21T09:01:47.258Z,24.50
2018-06-21T09:02:38.993Z,24.53
2018-06-21T09:03:39.227Z,24.40
2018-06-21T09:04:48.116Z,24.25
2018-06-21T09:05:39.840Z,23.80
2018-06-21T09:06:40.107Z,23.63
2018-06-21T09:07:40.376Z,23.63
2018-06-21T09:08:40.596Z,23.46
2018-06-21T09:09:48.562Z,23.42
2018-06-21T09:10:49.800Z,23.28
2018-06-21T09:11:51.328Z,23.17
2018-06-21T09:12:50.515Z,23.16
2018-06-21T09:13:42.215Z,23.05
2018-06-21T09:14:50.093Z,22.92
2018-06-21T09:15:42.833Z,22.90
2018-06-21T09:16:51.663Z,22.73
2018-06-21T09:17:52.079Z,22.76
2018-06-21T09:18:43.553Z,22.45
2018-06-21T09:19:43.855Z,22.37
2018-06-21T09:20:44.030Z,22.21
2018-06-21T09:21:52.904Z,22.21
2018-06-21T09:22:44.675Z,22.18
2018-06-21T09:23:44.901Z,22.03
2018-06-21T09:24:45.174Z,22.10
2018-06-21T09:25:55.050Z,22.00
2018-06-21T09:26:45.654Z,21.88
2018-06-21T09:27:54.484Z,21.90
2018-06-21T09:28:53.927Z,21.98
2018-06-21T09:29:46.601Z,21.99
2018-06-21T09:30:54.472Z,22.31
2018-06-21T09:31:55.756Z,22.72
2018-06-21T09:32:47.547Z,22.42
2018-06-21T09:33:47.770Z,22.43
2018-06-21T09:34:48.023Z,22.27
2018-06-21T09:35:56.893Z,22.33
2018-06-21T09:36:48.672Z,22.42
2018-06-21T09:37:57.505Z,22.49
2018-06-21T09:38:57.914Z,22.67
2018-06-21T09:39:58.263Z,22.75
2018-06-21T09:40:50.045Z,22.82
2018-06-21T09:41:57.918Z,22.91
2018-06-21T09:42:59.337Z,22.94
2018-06-21T09:44:03.829Z,23.09
2018-06-21T09:44:59.964Z,22.92
2018-06-21T09:45:51.717Z,22.82
2018-06-21T09:46:51.970Z,22.73
2018-06-21T09:48:00.813Z,22.60
2018-06-21T09:48:52.577Z,22.30
2018-06-21T09:50:00.620Z,22.22
2018-06-21T09:51:01.825Z,22.07
2018-06-21T09:52:02.194Z,22.05
2018-06-21T09:53:02.623Z,21.91
2018-06-21T09:54:02.099Z,21.75
2018-06-21T09:54:54.664Z,21.67
2018-06-21T09:55:54.906Z,21.52
2018-06-21T09:56:55.166Z,21.28
2018-06-21T09:57:55.399Z,20.98
2018-06-21T09:58:55.662Z,20.80
2018-06-21T09:59:55.900Z,20.74
2018-06-21T10:00:56.127Z,20.87
2018-06-21T10:02:05.032Z,20.92
2018-06-21T10:03:05.417Z,21.09
2018-06-21T10:03:56.961Z,21.24
2018-06-21T10:04:57.208Z,21.29
2018-06-21T10:05:57.459Z,21.27
2018-06-21T10:06:57.700Z,21.24
2018-06-21T10:07:57.950Z,21.09
2018-06-21T10:08:58.195Z,21.12
2018-06-21T10:10:07.072Z,21.13
2018-06-21T10:11:07.502Z,21.06
2018-06-21T10:12:08.890Z,21.13
2018-06-21T10:13:08.236Z,20.98
2018-06-21T10:13:59.884Z,20.99
2018-06-21T10:15:00.085Z,20.94
2018-06-21T10:16:09.030Z,21.03
2018-06-21T10:17:00.613Z,20.98
2018-06-21T10:18:09.449Z,20.97
2018-06-21T10:19:08.983Z,21.09
2018-06-21T10:20:10.111Z,21.29
2018-06-21T10:21:10.498Z,21.37
2018-06-21T10:22:10.873Z,21.49
2018-06-21T10:23:02.672Z,21.34
2018-06-21T10:24:02.891Z,21.25
2018-06-21T10:25:11.787Z,21.21
2018-06-21T10:26:03.604Z,21.27
2018-06-21T10:27:12.395Z,21.38
2018-06-21T10:28:12.808Z,21.40
2018-06-21T10:29:13.194Z,21.10
2018-06-21T10:30:13.576Z,21.24
2018-06-21T10:31:13.935Z,20.99
2018-06-21T10:32:05.714Z,20.72
2018-06-21T10:33:05.929Z,20.18
2018-06-21T10:34:06.141Z,19.78
2018-06-21T10:35:14.034Z,19.23
2018-06-21T10:36:06.689Z,18.88
2018-06-21T10:37:06.936Z,18.67
2018-06-21T10:38:07.186Z,18.45
2018-06-21T10:39:07.415Z,18.32
2018-06-21T10:40:07.657Z,18.21
2018-06-21T10:41:07.901Z,18.07
2018-06-21T10:42:08.149Z,18.05
2018-06-21T10:43:16.085Z,18.00
2018-06-21T10:44:17.528Z,18.07
2018-06-21T10:45:17.697Z,18.02
2018-06-21T10:46:18.144Z,17.97
2018-06-21T10:47:18.204Z,17.96
2018-06-21T10:48:18.661Z,18.05
2018-06-21T10:49:19.009Z,17.93
2018-06-21T10:50:19.408Z,17.93
2018-06-21T10:51:19.865Z,17.95
2018-06-21T10:52:19.962Z,18.07
2018-06-21T10:53:20.447Z,18.05
2018-06-21T10:54:20.739Z,18.10
2018-06-21T10:55:21.114Z,18.12
2018-06-21T10:56:21.524Z,18.17
2018-06-21T10:57:21.887Z,18.36
2018-06-21T10:58:22.253Z,18.50
2018-06-21T10:59:22.722Z,18.78
2018-06-21T11:00:24.101Z,18.81
2018-06-21T11:01:23.336Z,18.87
2018-06-21T11:02:23.715Z,18.95
2018-06-21T11:03:24.117Z,19.07
2018-06-21T11:04:24.606Z,19.21
2018-06-21T11:05:24.853Z,19.26
2018-06-21T11:06:25.359Z,19.29
2018-06-21T11:07:26.647Z,19.44
2018-06-21T11:08:25.940Z,19.58
2018-06-21T11:09:26.312Z,19.69
2018-06-21T11:10:26.882Z,19.46
2018-06-21T11:11:26.961Z,19.59
2018-06-21T11:12:27.354Z,19.61
2018-06-21T11:13:19.166Z,19.63
2018-06-21T11:14:28.023Z,19.81
2018-06-21T11:15:28.197Z,19.76
2018-06-21T11:16:28.625Z,20.41
2018-06-21T11:17:28.949Z,20.98
2018-06-21T11:18:20.756Z,21.06
2018-06-21T11:19:29.609Z,21.16
2018-06-21T11:20:21.318Z,21.19
2018-06-21T11:21:30.214Z,21.61
2018-06-21T11:22:30.586Z,21.90
2018-06-21T11:23:31.006Z,21.59
2018-06-21T11:24:22.745Z,21.74
2018-06-21T11:25:32.618Z,22.10
2018-06-21T11:26:31.876Z,23.27
2018-06-21T11:27:23.647Z,22.85
2018-06-21T11:28:32.459Z,23.13
2018-06-21T11:29:24.260Z,22.94
2018-06-21T11:30:33.155Z,22.60
2018-06-21T11:31:24.835Z,22.35
2018-06-21T11:32:25.078Z,22.54
2018-06-21T11:33:25.325Z,22.36
2018-06-21T11:34:25.553Z,22.42
2018-06-21T11:35:25.812Z,22.73
2018-06-21T11:36:26.698Z,22.54
2018-06-21T11:37:26.371Z,22.49
2018-06-21T11:38:26.637Z,21.98
2018-06-21T11:39:26.877Z,22.24
2018-06-21T11:40:27.124Z,22.12
2018-06-21T11:41:27.368Z,22.03
2018-06-21T11:42:27.603Z,22.10
2018-06-21T11:43:27.852Z,22.22
2018-06-21T11:44:28.104Z,21.88
2018-06-21T11:45:28.367Z,21.75
2018-06-21T11:46:28.631Z,22.31
2018-06-21T11:47:28.850Z,22.77
2018-06-21T11:48:29.092Z,22.92
2018-06-21T11:49:29.338Z,23.66
2018-06-21T11:50:29.587Z,24.18
2018-06-21T11:51:29.828Z,25.43
2018-06-21T11:52:30.070Z,25.43
2018-06-21T11:53:30.311Z,24.98
2018-06-21T11:54:30.568Z,25.20
2018-06-21T11:55:30.828Z,25.27
2018-06-21T11:56:31.166Z,25.72
2018-06-21T11:57:31.339Z,26.40
2018-06-21T11:58:31.584Z,26.52
2018-06-21T11:59:31.840Z,26.82
2018-06-21T12:00:32.085Z,27.10
2018-06-21T12:01:32.335Z,27.75
2018-06-21T12:02:32.577Z,27.84
2018-06-21T12:03:32.843Z,27.79
2018-06-21T12:04:33.117Z,28.51
2018-06-21T12:05:33.357Z,29.02
2018-06-21T12:06:33.605Z,28.52
2018-06-21T12:07:33.853Z,28.02
2018-06-21T12:08:34.107Z,27.49
2018-06-21T12:09:34.345Z,26.35
2018-06-21T12:10:34.613Z,25.17
2018-06-21T12:11:34.860Z,24.71
2018-06-21T12:12:44.736Z,24.39
2018-06-21T12:13:35.374Z,23.55
2018-06-21T12:14:35.683Z,23.51
2018-06-21T12:15:35.836Z,23.19
2018-06-21T12:16:36.113Z,24.13
2018-06-21T12:17:36.344Z,25.50
2018-06-21T12:18:36.634Z,25.90
2018-06-21T12:19:36.842Z,24.71
2018-06-21T12:20:37.113Z,24.58
2018-06-21T12:21:37.323Z,24.81
2018-06-21T12:22:47.219Z,25.14
2018-06-21T12:23:37.814Z,24.43
2018-06-21T12:24:38.085Z,24.39
2018-06-21T12:25:38.301Z,25.42
2018-06-21T12:26:38.554Z,25.72
2018-06-21T12:27:38.811Z,24.16
2018-06-21T12:28:47.709Z,24.02
2018-06-21T12:29:39.554Z,23.98
2018-06-21T12:30:39.685Z,24.78
2018-06-21T12:31:48.554Z,25.33
2018-06-21T12:32:40.330Z,24.37
2018-06-21T12:33:40.584Z,24.37
2018-06-21T12:34:40.800Z,24.78
2018-06-21T12:35:41.045Z,25.25
2018-06-21T12:36:50.938Z,26.23
2018-06-21T12:37:41.576Z,26.66
2018-06-21T12:38:41.803Z,26.73
2018-06-21T12:39:42.021Z,26.77
2018-06-21T12:40:42.275Z,25.05
2018-06-21T12:41:42.523Z,24.42
2018-06-21T12:42:42.766Z,24.40
2018-06-21T12:43:51.666Z,24.35
2018-06-21T12:44:43.423Z,25.99
2018-06-21T12:45:43.674Z,26.55
2018-06-21T12:46:43.926Z,26.95
2018-06-21T12:47:52.817Z,27.77
2018-06-21T12:48:52.192Z,27.41
2018-06-21T12:49:44.864Z,27.46
2018-06-21T12:50:45.105Z,27.79
2018-06-21T12:51:45.359Z,28.24
2018-06-21T12:52:45.605Z,27.70
2018-06-21T12:53:45.860Z,26.72
2018-06-21T12:54:46.116Z,25.76
2018-06-21T12:55:46.350Z,24.30
2018-06-21T12:56:46.604Z,25.05
2018-06-21T12:57:46.856Z,24.34